Great River, New York
Current Conditions -  °F | °C
As of 6:56 PM on Thursday 18 Dec 2014 (Local Time) from KISP Reporting Station
Clear Clear  
Wind Chill: 30°   Ceiling: Unl
Heat Index: 37°   Visibility: 10mi
Dew Point: 26°   Wind: 10mph
Humidity: 65%   Direction: 310°NW
Pressure: 29.92"   Gusts: NA
Location:  40.72°N, 73.16°W
Report Text: KISP 182356Z 31009KT 10SM CLR 03/M03 A2992 RMK AO2 SLP131 T00281033 10061 20028 51003
Loading
Personal Weather Stations






























Interactive Weather Map New forecast layout! Learn more

10-Day Weather Forecast

Advertisements
Track Severe Weather on mobile